createdAt,value
2023-04-18T00:00:10.704Z,7.19
2023-04-18T00:03:04.874Z,7.19
2023-04-18T00:05:34.034Z,7.10
2023-04-18T00:08:03.104Z,7.13
2023-04-18T00:10:32.021Z,7.15
2023-04-18T00:13:02.479Z,7.11
2023-04-18T00:15:31.788Z,7.09
2023-04-18T00:18:03.997Z,7.11
2023-04-18T00:20:33.391Z,7.14
2023-04-18T00:23:02.456Z,7.11
2023-04-18T00:25:31.252Z,7.12
2023-04-18T00:28:00.459Z,7.10
2023-04-18T00:30:30.710Z,7.10
2023-04-18T00:32:59.990Z,7.12
2023-04-18T00:35:28.874Z,7.13
2023-04-18T00:37:57.961Z,7.16
2023-04-18T00:40:26.908Z,7.14
2023-04-18T00:42:56.583Z,7.17
2023-04-18T00:45:25.401Z,7.15
2023-04-18T00:47:56.314Z,7.15
2023-04-18T00:50:25.446Z,7.09
2023-04-18T00:52:54.751Z,7.08
2023-04-18T00:55:23.788Z,7.12
2023-04-18T00:57:53.236Z,7.12
2023-04-18T01:00:22.046Z,7.13
2023-04-18T01:02:53.398Z,7.05
2023-04-18T01:05:23.950Z,7.12
2023-04-18T01:07:53.282Z,7.18
2023-04-18T01:10:22.050Z,7.10
2023-04-18T01:12:52.003Z,7.18
2023-04-18T01:15:20.975Z,7.20
2023-04-18T01:17:50.075Z,7.23
2023-04-18T01:20:18.977Z,7.23
2023-04-18T01:22:49.436Z,7.17
2023-04-18T01:25:19.724Z,7.21
2023-04-18T01:27:49.728Z,7.21
2023-04-18T01:30:18.607Z,7.14
2023-04-18T01:32:47.696Z,7.15
2023-04-18T01:35:17.614Z,7.21
2023-04-18T01:37:46.734Z,7.25
2023-04-18T01:40:15.689Z,7.24
2023-04-18T01:42:46.240Z,7.31
2023-04-18T01:45:15.202Z,7.31
2023-04-18T01:47:44.780Z,7.28
2023-04-18T01:50:14.169Z,7.22
2023-04-18T01:52:45.166Z,7.22
2023-04-18T01:55:14.202Z,7.25
2023-04-18T01:57:43.427Z,7.27
2023-04-18T02:00:14.417Z,7.22
2023-04-18T02:02:43.943Z,7.27
2023-04-18T02:05:12.980Z,7.23
2023-04-18T02:07:42.856Z,7.25
2023-04-18T02:10:12.072Z,7.25
2023-04-18T02:12:41.375Z,7.24
2023-04-18T02:15:10.733Z,7.25
2023-04-18T02:17:41.575Z,7.26
2023-04-18T02:20:11.272Z,7.24
2023-04-18T02:22:40.438Z,7.23
2023-04-18T02:25:09.542Z,7.28
2023-04-18T02:27:38.684Z,7.30
2023-04-18T02:30:08.145Z,7.22
2023-04-18T02:32:37.356Z,7.24
2023-04-18T02:35:08.088Z,7.25
2023-04-18T02:37:37.198Z,7.22
2023-04-18T02:40:07.341Z,7.26
2023-04-18T02:42:36.531Z,7.28
2023-04-18T02:45:05.732Z,7.28
2023-04-18T02:47:46.934Z,7.25
2023-04-18T02:50:21.865Z,7.27
2023-04-18T02:52:51.429Z,7.23
2023-04-18T02:55:22.224Z,7.24
2023-04-18T02:57:51.459Z,7.26
2023-04-18T03:00:38.702Z,7.23
2023-04-18T03:03:34.158Z,7.23
2023-04-18T03:06:31.800Z,7.19
2023-04-18T03:09:03.954Z,7.28
2023-04-18T03:11:35.306Z,7.25
2023-04-18T03:14:04.751Z,7.30
2023-04-18T03:16:42.626Z,7.31
2023-04-18T03:19:15.274Z,7.31
2023-04-18T03:21:45.729Z,7.32
2023-04-18T03:24:15.225Z,7.33
2023-04-18T03:26:47.147Z,7.35
2023-04-18T03:29:16.416Z,7.38
2023-04-18T03:31:47.392Z,7.34
2023-04-18T03:34:16.708Z,7.37
2023-04-18T03:36:48.265Z,7.35
2023-04-18T03:39:18.895Z,7.40
2023-04-18T03:41:48.272Z,7.37
2023-04-18T03:44:17.355Z,7.35
2023-04-18T03:46:46.384Z,7.31
2023-04-18T03:49:15.694Z,7.30
2023-04-18T03:51:47.770Z,7.27
2023-04-18T03:54:18.668Z,7.32
2023-04-18T03:56:47.566Z,7.25
2023-04-18T03:59:17.064Z,7.26
2023-04-18T04:01:50.095Z,7.21
2023-04-18T04:04:20.385Z,7.20
2023-04-18T04:06:49.418Z,7.33
2023-04-18T04:09:20.422Z,7.33
2023-04-18T04:11:49.290Z,7.36
2023-04-18T04:14:18.933Z,7.24
2023-04-18T04:16:48.489Z,7.26
2023-04-18T04:19:19.464Z,7.28
2023-04-18T04:21:56.491Z,7.32
2023-04-18T04:24:29.146Z,7.31
2023-04-18T04:26:59.014Z,7.30
2023-04-18T04:29:29.063Z,7.39
2023-04-18T04:31:59.850Z,7.41
2023-04-18T04:34:35.877Z,7.34
2023-04-18T04:37:08.192Z,7.46
2023-04-18T04:39:44.942Z,7.40
2023-04-18T04:42:32.036Z,7.50
2023-04-18T04:45:09.432Z,7.49
2023-04-18T04:47:38.672Z,7.50
2023-04-18T04:50:14.664Z,7.52
2023-04-18T04:52:43.716Z,7.43
2023-04-18T04:55:14.226Z,7.47
2023-04-18T04:57:44.882Z,7.44
2023-04-18T05:00:40.449Z,7.42
2023-04-18T05:03:09.949Z,7.42
2023-04-18T05:05:39.181Z,7.45
2023-04-18T05:08:08.019Z,7.50
2023-04-18T05:10:38.527Z,7.53
2023-04-18T05:13:07.376Z,7.52
2023-04-18T05:15:36.571Z,7.54
2023-04-18T05:18:06.315Z,7.56
2023-04-18T05:20:35.676Z,7.63
2023-04-18T05:23:04.476Z,7.66
2023-04-18T05:25:33.900Z,7.69
2023-04-18T05:28:04.651Z,7.76
2023-04-18T05:30:33.911Z,7.78
2023-04-18T05:33:02.745Z,7.78
2023-04-18T05:35:32.305Z,7.82
2023-04-18T05:38:01.110Z,7.81
2023-04-18T05:40:30.306Z,7.85
2023-04-18T05:42:59.075Z,7.95
2023-04-18T05:45:29.693Z,7.96
2023-04-18T05:47:58.597Z,8.05
2023-04-18T05:50:27.685Z,8.05
2023-04-18T05:52:59.334Z,8.08
2023-04-18T05:55:28.494Z,8.18
2023-04-18T05:57:57.249Z,8.10
2023-04-18T06:00:26.450Z,8.23
2023-04-18T06:02:56.810Z,8.27
2023-04-18T06:05:26.346Z,8.27
2023-04-18T06:07:55.311Z,8.31
2023-04-18T06:10:24.415Z,8.25
2023-04-18T06:12:53.240Z,8.29
2023-04-18T06:15:22.354Z,8.34
2023-04-18T06:17:51.467Z,8.39
2023-04-18T06:20:23.240Z,8.39
2023-04-18T06:22:52.150Z,8.45
2023-04-18T06:25:21.564Z,8.57
2023-04-18T06:27:50.639Z,8.57
2023-04-18T06:30:22.035Z,8.63
2023-04-18T06:32:51.171Z,8.69
2023-04-18T06:35:20.712Z,8.74
2023-04-18T06:37:51.154Z,8.85
2023-04-18T06:40:20.393Z,8.93
2023-04-18T06:42:49.149Z,9.06
2023-04-18T06:45:18.459Z,9.10
2023-04-18T06:47:48.063Z,9.10
2023-04-18T06:50:17.253Z,9.04
2023-04-18T06:52:46.064Z,9.07
2023-04-18T06:55:16.573Z,9.02
2023-04-18T06:57:45.608Z,9.17
2023-04-18T07:00:15.456Z,9.03
2023-04-18T07:02:44.410Z,9.20
2023-04-18T07:05:13.659Z,9.30
2023-04-18T07:07:42.566Z,9.46
2023-04-18T07:10:12.185Z,9.51
2023-04-18T07:12:42.478Z,9.53
2023-04-18T07:15:11.847Z,9.60
2023-04-18T07:17:40.685Z,9.76
2023-04-18T07:20:12.365Z,9.77
2023-04-18T07:22:42.826Z,9.88
2023-04-18T07:25:12.011Z,9.93
2023-04-18T07:27:42.293Z,9.92
2023-04-18T07:30:12.034Z,10.02
2023-04-18T07:32:40.895Z,10.02
2023-04-18T07:35:10.390Z,10.09
2023-04-18T07:37:39.365Z,10.05
2023-04-18T07:40:09.632Z,10.20
2023-04-18T07:42:38.459Z,10.28
2023-04-18T07:45:09.478Z,10.35
2023-04-18T07:47:38.367Z,10.50
2023-04-18T07:50:08.529Z,10.50
2023-04-18T07:52:38.315Z,10.62
2023-04-18T07:55:09.136Z,10.65
2023-04-18T07:57:37.962Z,10.73
2023-04-18T08:00:07.985Z,10.82
2023-04-18T08:02:43.115Z,10.73
2023-04-18T08:05:12.941Z,10.80
2023-04-18T08:07:41.926Z,10.87
2023-04-18T08:10:11.603Z,10.85
2023-04-18T08:12:40.708Z,11.08
2023-04-18T08:15:10.623Z,11.27
2023-04-18T08:17:39.969Z,11.33
2023-04-18T08:20:10.803Z,11.45
2023-04-18T08:22:46.964Z,11.53
2023-04-18T08:25:28.870Z,11.47
2023-04-18T08:27:57.895Z,11.52
2023-04-18T08:30:27.137Z,11.53
2023-04-18T08:32:56.005Z,11.55
2023-04-18T08:35:26.692Z,11.67
2023-04-18T08:37:55.529Z,11.78
2023-04-18T08:40:24.722Z,11.80
2023-04-18T08:42:54.018Z,11.87
2023-04-18T08:45:24.413Z,11.95
2023-04-18T08:47:53.488Z,12.10
2023-04-18T08:50:23.220Z,12.15
2023-04-18T08:52:55.536Z,12.16
2023-04-18T08:55:24.695Z,12.16
2023-04-18T08:57:55.296Z,12.30
2023-04-18T09:00:24.502Z,12.39
2023-04-18T09:02:56.788Z,12.42
2023-04-18T09:05:28.131Z,12.51
2023-04-18T09:07:58.409Z,12.52
2023-04-18T09:10:32.665Z,12.54
2023-04-18T09:13:03.405Z,12.63
2023-04-18T09:15:32.950Z,12.79
2023-04-18T09:18:03.210Z,12.77
2023-04-18T09:20:38.031Z,12.85
2023-04-18T09:23:11.488Z,12.92
2023-04-18T09:25:46.669Z,12.89
2023-04-18T09:28:27.068Z,12.89
2023-04-18T09:30:57.184Z,12.74
2023-04-18T09:33:28.341Z,12.76
2023-04-18T09:36:00.320Z,12.59
2023-04-18T09:38:41.423Z,12.62
2023-04-18T09:41:11.307Z,12.79
2023-04-18T09:43:40.340Z,12.93
2023-04-18T09:46:09.866Z,13.01
2023-04-18T09:48:39.630Z,13.09
2023-04-18T09:51:09.429Z,13.12
2023-04-18T09:53:39.749Z,13.15
2023-04-18T09:56:12.655Z,13.08
2023-04-18T09:58:42.713Z,13.06
2023-04-18T10:01:13.438Z,13.14
2023-04-18T10:03:45.645Z,13.09
2023-04-18T10:06:17.085Z,13.27
2023-04-18T10:08:46.468Z,13.28
2023-04-18T10:11:18.575Z,13.28
2023-04-18T10:13:49.250Z,13.32
2023-04-18T10:16:18.534Z,13.40
2023-04-18T10:18:47.393Z,13.49
2023-04-18T10:21:16.835Z,13.53
2023-04-18T10:23:48.820Z,13.53
2023-04-18T10:26:19.414Z,13.52
2023-04-18T10:28:51.220Z,13.54
2023-04-18T10:31:20.483Z,13.71
2023-04-18T10:34:03.183Z,13.81
2023-04-18T10:36:34.167Z,13.82
2023-04-18T10:39:04.349Z,13.99
2023-04-18T10:41:35.250Z,14.06
2023-04-18T10:44:18.425Z,14.09
2023-04-18T10:47:06.478Z,14.03
2023-04-18T10:49:37.187Z,14.04
2023-04-18T10:52:06.929Z,14.05
2023-04-18T10:54:47.770Z,14.25
2023-04-18T10:57:18.353Z,14.30
2023-04-18T10:59:49.644Z,14.26
2023-04-18T11:02:26.433Z,14.35
2023-04-18T11:04:56.336Z,14.43
2023-04-18T11:07:33.395Z,14.32
2023-04-18T11:10:02.629Z,14.37
2023-04-18T11:12:34.821Z,14.47
2023-04-18T11:15:10.907Z,14.45
2023-04-18T11:17:41.285Z,14.52
2023-04-18T11:20:12.900Z,14.54
2023-04-18T11:22:46.637Z,14.32
2023-04-18T11:25:16.430Z,14.55
2023-04-18T11:27:47.720Z,14.73
2023-04-18T11:30:16.808Z,14.84
2023-04-18T11:32:45.952Z,14.89
2023-04-18T11:35:15.865Z,14.87
2023-04-18T11:37:45.993Z,14.89
2023-04-18T11:40:15.141Z,14.92
2023-04-18T11:42:44.430Z,14.82
2023-04-18T11:45:15.456Z,14.95
2023-04-18T11:47:44.946Z,15.02
2023-04-18T11:50:14.370Z,15.06
2023-04-18T11:52:43.623Z,15.11
2023-04-18T11:55:17.883Z,15.07
2023-04-18T11:57:53.516Z,15.12
2023-04-18T12:00:32.579Z,15.02
2023-04-18T12:03:02.969Z,15.11
2023-04-18T12:05:32.786Z,14.96
2023-04-18T12:08:09.076Z,14.88
2023-04-18T12:10:37.987Z,15.01
2023-04-18T12:13:08.142Z,15.12
2023-04-18T12:15:40.690Z,15.05
2023-04-18T12:18:10.235Z,14.97
2023-04-18T12:20:40.448Z,15.14
2023-04-18T12:23:09.588Z,15.08
2023-04-18T12:25:38.817Z,15.22
2023-04-18T12:28:15.627Z,15.30
2023-04-18T12:30:45.840Z,15.47
2023-04-18T12:33:15.000Z,15.45
2023-04-18T12:35:43.815Z,15.40
2023-04-18T12:38:12.970Z,15.28
2023-04-18T12:40:41.719Z,15.41
2023-04-18T12:43:11.356Z,15.53
2023-04-18T12:45:40.162Z,15.74
2023-04-18T12:48:10.697Z,15.77
2023-04-18T12:50:39.586Z,15.57
2023-04-18T12:53:08.647Z,15.74
2023-04-18T12:55:37.714Z,15.52
2023-04-18T12:58:06.875Z,15.55
2023-04-18T13:00:35.963Z,15.57
2023-04-18T13:03:05.981Z,15.34
2023-04-18T13:06:01.888Z,15.43
2023-04-18T13:08:31.054Z,15.49
2023-04-18T13:10:59.810Z,15.44
2023-04-18T13:13:29.156Z,15.54
2023-04-18T13:15:57.971Z,15.38
2023-04-18T13:18:27.107Z,15.30
2023-04-18T13:20:56.075Z,15.42
2023-04-18T13:23:26.692Z,15.38
2023-04-18T13:25:55.557Z,15.13
2023-04-18T13:28:26.208Z,14.82
2023-04-18T13:30:55.144Z,14.66
2023-04-18T13:33:24.273Z,14.71
2023-04-18T13:35:53.127Z,14.66
2023-04-18T13:38:22.227Z,14.46
2023-04-18T13:41:01.312Z,14.48
2023-04-18T13:44:11.592Z,14.39
2023-04-18T13:46:40.833Z,14.40
2023-04-18T13:49:09.898Z,14.13
2023-04-18T13:51:38.769Z,14.18
2023-04-18T13:54:07.910Z,14.22
2023-04-18T13:56:38.851Z,14.08
2023-04-18T13:59:08.065Z,14.07
2023-04-18T14:01:36.898Z,13.84
2023-04-18T14:04:06.557Z,13.82
2023-04-18T14:06:35.710Z,13.54
2023-04-18T14:09:08.006Z,13.65
2023-04-18T14:11:38.335Z,13.62
2023-04-18T14:14:07.957Z,13.64
2023-04-18T14:16:48.952Z,13.20
2023-04-18T14:19:18.219Z,13.06
2023-04-18T14:21:47.294Z,12.95
2023-04-18T14:24:16.624Z,13.08
2023-04-18T14:26:46.879Z,13.06
2023-04-18T14:29:16.492Z,12.63
2023-04-18T14:31:46.118Z,12.66
2023-04-18T14:34:15.562Z,12.59
2023-04-18T14:36:44.525Z,12.42
2023-04-18T14:39:13.828Z,12.17
2023-04-18T14:41:42.931Z,12.32
2023-04-18T14:44:13.585Z,12.18
2023-04-18T14:46:43.477Z,12.11
2023-04-18T14:49:13.492Z,12.09
2023-04-18T14:51:42.499Z,11.92
2023-04-18T14:54:11.631Z,11.92
2023-04-18T14:56:40.465Z,11.82
2023-04-18T14:59:09.558Z,11.68
2023-04-18T15:01:41.609Z,11.64
2023-04-18T15:04:11.045Z,11.56
2023-04-18T15:06:40.011Z,11.48
2023-04-18T15:09:09.204Z,11.46
2023-04-18T15:11:38.357Z,11.28
2023-04-18T15:14:07.529Z,11.27
2023-04-18T15:16:38.167Z,11.29
2023-04-18T15:19:08.748Z,11.39
2023-04-18T15:21:37.643Z,11.31
2023-04-18T15:24:07.111Z,11.12
2023-04-18T15:26:36.082Z,11.13
2023-04-18T15:29:05.193Z,11.03
2023-04-18T15:31:34.231Z,11.24
2023-04-18T15:34:03.653Z,10.84
2023-04-18T15:36:35.480Z,10.97
2023-04-18T15:39:05.761Z,10.74
2023-04-18T15:41:35.511Z,10.70
2023-04-18T15:44:06.602Z,10.55
2023-04-18T15:46:37.450Z,10.56
2023-04-18T15:49:06.708Z,10.50
2023-04-18T15:51:36.877Z,10.36
2023-04-18T15:54:06.608Z,10.43
2023-04-18T15:56:36.844Z,10.39
2023-04-18T15:59:07.333Z,10.32
2023-04-18T16:01:36.717Z,10.11
2023-04-18T16:04:06.060Z,10.04
2023-04-18T16:06:37.803Z,9.88
2023-04-18T16:09:07.017Z,9.96
2023-04-18T16:11:35.968Z,10.00
2023-04-18T16:14:05.391Z,10.00
2023-04-18T16:16:34.504Z,10.04
2023-04-18T16:19:04.438Z,9.85
2023-04-18T16:21:36.142Z,9.89
2023-04-18T16:24:05.785Z,9.67
2023-04-18T16:26:34.586Z,9.54
2023-04-18T16:29:03.754Z,9.59
2023-04-18T16:31:32.618Z,9.45
2023-04-18T16:34:03.316Z,9.33
2023-04-18T16:36:34.232Z,9.17
2023-04-18T16:39:05.173Z,9.04
2023-04-18T16:41:34.041Z,8.97
2023-04-18T16:44:03.624Z,9.00
2023-04-18T16:46:32.638Z,9.03
2023-04-18T16:49:02.268Z,9.06
2023-04-18T16:51:31.881Z,9.04
2023-04-18T16:54:01.012Z,8.94
2023-04-18T16:56:31.478Z,8.95
2023-04-18T16:59:00.707Z,8.97
2023-04-18T17:01:29.535Z,8.89
2023-04-18T17:03:59.289Z,8.84
2023-04-18T17:06:28.246Z,8.81
2023-04-18T17:08:58.727Z,8.54
2023-04-18T17:11:28.010Z,8.63
2023-04-18T17:13:58.471Z,8.61
2023-04-18T17:16:27.565Z,8.47
2023-04-18T17:18:56.727Z,8.61
2023-04-18T17:21:26.162Z,8.31
2023-04-18T17:23:56.468Z,8.17
2023-04-18T17:26:26.655Z,8.36
2023-04-18T17:28:56.028Z,8.25
2023-04-18T17:31:26.352Z,8.22
2023-04-18T17:33:56.389Z,8.29
2023-04-18T17:36:25.358Z,8.04
2023-04-18T17:38:54.499Z,8.03
2023-04-18T17:41:23.534Z,7.95
2023-04-18T17:43:52.859Z,7.85
2023-04-18T17:46:21.814Z,7.91
2023-04-18T17:48:52.336Z,7.68
2023-04-18T17:51:21.272Z,7.65
2023-04-18T17:53:50.404Z,7.77
2023-04-18T17:56:19.239Z,7.73
2023-04-18T17:58:48.298Z,7.77
2023-04-18T18:01:17.389Z,7.46
2023-04-18T18:03:47.277Z,7.58
2023-04-18T18:06:17.726Z,7.51
2023-04-18T18:08:46.861Z,7.40
2023-04-18T18:11:15.691Z,7.37
2023-04-18T18:13:46.714Z,7.39
2023-04-18T18:16:15.637Z,7.33
2023-04-18T18:18:44.949Z,7.32
2023-04-18T18:21:14.245Z,7.30
2023-04-18T18:23:44.764Z,7.32
2023-04-18T18:26:13.605Z,7.23
2023-04-18T18:28:42.724Z,7.21
2023-04-18T18:31:11.626Z,7.21
2023-04-18T18:33:40.747Z,7.16
2023-04-18T18:36:09.531Z,7.15
2023-04-18T18:38:38.617Z,7.16
2023-04-18T18:41:09.001Z,6.75
2023-04-18T18:43:38.114Z,7.03
2023-04-18T18:46:06.902Z,6.93
2023-04-18T18:48:38.216Z,6.98
2023-04-18T18:51:07.076Z,6.62
2023-04-18T18:53:37.740Z,6.79
2023-04-18T18:56:09.785Z,6.72
2023-04-18T18:58:39.248Z,6.79
2023-04-18T19:01:08.353Z,6.80
2023-04-18T19:03:37.650Z,6.71
2023-04-18T19:06:07.438Z,6.73
2023-04-18T19:08:36.536Z,6.82
2023-04-18T19:11:05.851Z,6.67
2023-04-18T19:13:36.363Z,6.67
2023-04-18T19:16:05.378Z,6.74
2023-04-18T19:18:34.453Z,6.68
2023-04-18T19:21:03.790Z,6.59
2023-04-18T19:23:32.882Z,6.58
2023-04-18T19:26:01.972Z,6.60
2023-04-18T19:28:31.370Z,6.53
2023-04-18T19:31:01.922Z,6.45
2023-04-18T19:33:31.111Z,6.36
2023-04-18T19:35:59.859Z,6.46
2023-04-18T19:38:29.052Z,6.38
2023-04-18T19:40:58.078Z,6.41
2023-04-18T19:43:27.198Z,6.47
2023-04-18T19:45:55.992Z,6.41
2023-04-18T19:48:26.549Z,6.29
2023-04-18T19:50:57.069Z,6.32
2023-04-18T19:53:26.164Z,6.30
2023-04-18T19:55:55.384Z,6.37
2023-04-18T19:58:39.818Z,6.24
2023-04-18T20:01:10.080Z,6.28
2023-04-18T20:03:41.453Z,6.30
2023-04-18T20:06:10.607Z,6.32
2023-04-18T20:08:41.542Z,6.26
2023-04-18T20:11:11.247Z,6.21
2023-04-18T20:13:40.816Z,6.23
2023-04-18T20:16:11.117Z,6.27
2023-04-18T20:18:44.082Z,6.24
2023-04-18T20:21:12.916Z,6.14
2023-04-18T20:23:42.726Z,6.18
2023-04-18T20:26:11.665Z,6.07
2023-04-18T20:28:40.768Z,6.14
2023-04-18T20:31:09.853Z,6.11
2023-04-18T20:33:38.959Z,6.01
2023-04-18T20:36:09.268Z,5.98
2023-04-18T20:38:38.354Z,5.92
2023-04-18T20:41:10.750Z,5.93
2023-04-18T20:43:41.174Z,6.02
2023-04-18T20:46:12.860Z,5.95
2023-04-18T20:48:42.033Z,5.90
2023-04-18T20:51:12.165Z,5.89
2023-04-18T20:53:41.278Z,5.88
2023-04-18T20:56:10.042Z,5.84
2023-04-18T20:58:39.233Z,5.78
2023-04-18T21:01:08.216Z,5.80
2023-04-18T21:03:37.659Z,5.72
2023-04-18T21:06:06.547Z,5.60
2023-04-18T21:08:38.015Z,5.71
2023-04-18T21:11:06.955Z,5.68
2023-04-18T21:13:36.151Z,5.70
2023-04-18T21:16:07.969Z,5.65
2023-04-18T21:18:37.242Z,5.66
2023-04-18T21:21:06.161Z,5.67
2023-04-18T21:23:42.012Z,5.59
2023-04-18T21:26:13.736Z,5.45
2023-04-18T21:29:00.875Z,5.47
2023-04-18T21:31:30.563Z,5.54
2023-04-18T21:34:00.480Z,5.52
2023-04-18T21:36:30.681Z,5.64
2023-04-18T21:39:00.899Z,5.52
2023-04-18T21:41:31.233Z,5.45
2023-04-18T21:44:00.342Z,5.52
2023-04-18T21:46:29.167Z,5.46
2023-04-18T21:48:58.264Z,5.52
2023-04-18T21:51:27.262Z,5.46
2023-04-18T21:53:56.363Z,5.56
2023-04-18T21:56:25.111Z,5.46
2023-04-18T21:58:55.646Z,5.34
2023-04-18T22:01:24.564Z,5.33
2023-04-18T22:03:53.990Z,5.43
2023-04-18T22:06:23.366Z,5.42
2023-04-18T22:08:52.544Z,5.40
2023-04-18T22:11:23.741Z,5.28
2023-04-18T22:13:54.299Z,5.14
2023-04-18T22:16:24.797Z,5.19
2023-04-18T22:18:54.306Z,5.27
2023-04-18T22:21:23.085Z,5.28
2023-04-18T22:23:52.110Z,5.34
2023-04-18T22:26:21.216Z,5.32
2023-04-18T22:28:50.307Z,5.16
2023-04-18T22:31:19.183Z,5.27
2023-04-18T22:33:49.705Z,5.18
2023-04-18T22:36:18.548Z,5.22
2023-04-18T22:38:47.611Z,5.19
2023-04-18T22:41:16.491Z,5.01
2023-04-18T22:43:45.633Z,5.11
2023-04-18T22:46:14.457Z,5.13
2023-04-18T22:48:44.953Z,5.19
2023-04-18T22:51:15.306Z,5.20
2023-04-18T22:53:44.361Z,5.17
2023-04-18T22:56:13.136Z,5.22
2023-04-18T22:58:42.258Z,5.16
2023-04-18T23:01:11.014Z,5.16
2023-04-18T23:03:40.328Z,5.25
2023-04-18T23:06:09.207Z,5.20
2023-04-18T23:08:39.721Z,5.22
2023-04-18T23:11:08.527Z,5.19
2023-04-18T23:13:37.636Z,5.27
2023-04-18T23:16:06.906Z,5.20
2023-04-18T23:18:35.990Z,5.24
2023-04-18T23:21:04.902Z,5.33
2023-04-18T23:23:33.984Z,5.33
2023-04-18T23:26:04.236Z,5.42
2023-04-18T23:28:34.175Z,5.42
2023-04-18T23:31:03.006Z,5.31
2023-04-18T23:33:33.394Z,5.34
2023-04-18T23:36:02.327Z,5.43
2023-04-18T23:38:31.826Z,5.44
2023-04-18T23:41:00.612Z,5.45
2023-04-18T23:43:31.130Z,5.39
2023-04-18T23:45:59.932Z,5.31
2023-04-18T23:48:28.955Z,5.56
2023-04-18T23:50:57.798Z,5.60
2023-04-18T23:53:26.840Z,5.56
2023-04-18T23:55:55.670Z,5.62
2023-04-18T23:58:26.412Z,5.64
